Weather Top, Arizona (BMGR) Weather observations

Data are for 10 minute period ending at time listed.
 Day   Time   Solar   Ave.   Ave.  Ave.  Vector  Max.   Total    
  of    of     Rad.   Air    Rel.  Wind   Wind   Wind  Precip.   
Year   Day            Temp.  Hum.  Speed  Dir.   Gust            
2026   (MST)  Kw/m2    F      %     mph   deg.    mph    in.     
-----------------------------------------------------------------
 123    6:35   0.07   72.2    18    8.7   111    11.0    0.00 
 123    6:40   0.07   72.2    18    8.0   104    10.5    0.00 
 123    6:45   0.06   72.3    18    8.1   106    10.5    0.00 
 123    6:50   0.08   72.0    18    6.9    94     8.8    0.00 
 123    6:55   0.09   72.3    18    7.6   110    10.5    0.00 
 123    7:00   0.09   72.8    18    9.1   116    13.3    0.00 
 123    7:05   0.10   73.3    18    9.8   116    13.3    0.00 
 123    7:10   0.12   73.3    18    9.4   110    12.1    0.00 
 123    7:15   0.13   72.6    18    8.1   100    10.5    0.00 
 123    7:20   0.14   72.5    18    7.2   103     9.3    0.00 
 123    7:25   0.14   72.8    18    8.3   109     9.9    0.00 
 123    7:30   0.15   73.3    18    7.3   112    10.5    0.00 
 123    7:35   0.17   73.4    18    6.4   113     8.8    0.00 
 123    7:40   0.17   73.4    18    7.1   108    11.0    0.00 
 123    7:45   0.17   73.7    18    7.3   111     9.3    0.00 
 123    7:50   0.18   74.1    18    8.4   121    11.6    0.00 
 123    7:55   0.18   74.1    18    7.1   117    12.1    0.00 
 123    8:00   0.22   74.3    17    5.8   122     7.7    0.00 
 123    8:05   0.21   74.3    18    6.3   121     9.9    0.00 
 123    8:10   0.22   74.4    18    6.2   123     9.3    0.00 
 123    8:15   0.22   74.7    17    5.5   134     8.2    0.00 
 123    8:20   0.20   74.9    17    6.5   127    11.0    0.00 
 123    8:25   0.25   74.8    17    7.4   126     9.9    0.00 
 123    8:30   0.24   75.0    17    7.9   124    11.6    0.00 
 123    8:35   0.25   75.1    17    7.5   119    11.6    0.00 
 123    8:40   0.26   75.5    17    8.2   123    12.1    0.00 
 123    8:45   0.27   75.7    17    6.4   130    12.1    0.00 
 123    8:50   0.31   75.7    17    7.9   130    12.1    0.00 
 123    8:55   0.32   75.9    17    6.4   131    12.1    0.00 
 123    9:00   0.35   76.1    17    6.2   131    11.6    0.00 
 123    9:05   0.36   76.4    17    6.7   127    11.0    0.00 
 123    9:10   0.31   76.6    17    5.8   130     8.8    0.00 
 123    9:15   0.29   77.5    16    6.8   137    12.1    0.00 
 123    9:20   0.32   77.6    16    8.1   127    16.0    0.00 
 123    9:25   0.33   77.5    16    8.8   124    12.7    0.00 
 123    9:30   0.42   77.7    16    9.7   124    17.7    0.00 
 123    9:35   0.52   79.1    15    7.1   134    13.8    0.00 
 123    9:40   0.60   79.4    14    9.2   121    13.3    0.00 
 123    9:45   0.76   79.5    14    9.4   123    15.5    0.00 
 123    9:50   0.67   80.6    14    9.0   135    14.9    0.00 
 123    9:55   0.73   80.4    14    8.6   133    13.8    0.00 
 123   10:00   0.62   80.3    14    8.7   125    14.4    0.00 
 123   10:05   0.67   80.5    14    8.8   128    16.0    0.00 
 123   10:10   0.72   80.5    14   10.6   118    17.2    0.00 
 123   10:15   0.61   80.5    14    8.6   119    13.3    0.00 
 123   10:20   0.69   80.8    14    9.7   126    16.6    0.00 
 123   10:25   0.69   80.3    14   12.7   120    18.3    0.00 
 123   10:30   0.77   80.5    15   11.5   120    17.2    0.00 
 123   10:35   0.80   81.0    15    9.1   128    16.6    0.00 
 123   10:40   0.77   82.8    14    5.8   165    11.0    0.00 
 123   10:45   0.62   83.0    14    8.0   187    14.9    0.00 
 123   10:50   0.58   82.7    14    7.0   192    11.0    0.00 
 123   10:55   0.62   82.7    15    7.1   190    13.3    0.00 
 123   11:00   0.66   82.6    15   11.0   174    14.9    0.00 
 123   11:05   0.59   82.5    16   10.3   182    16.6    0.00 
 123   11:10   0.67   82.4    16    8.5   190    14.4    0.00 
 123   11:15   0.73   83.4    15    6.5   174    13.3    0.00 
 123   11:20   0.78   83.7    15    9.5   176    17.2    0.00 
 123   11:25   0.85   84.0    15   10.0   170    14.9    0.00 
 123   11:30   0.83   84.5    15   10.8   155    18.9    0.00 
 123   11:35   0.92   84.3    14   12.2   158    20.0    0.00 
 123   11:40   0.97   84.7    14   11.6   170    22.8    0.00 
 123   11:45   0.96   85.1    14   11.3   163    18.3    0.00 
 123   11:50   0.81   85.0    14   10.4   166    19.4    0.00 
 123   11:55   0.92   85.2    14    8.0   176    13.3    0.00 
 123   12:00   1.01   85.6    14    7.4   202    21.6    0.00 
 123   12:05   0.88   85.7    14   10.6   189    25.6    0.00 
 123   12:10   0.93   84.8    14   12.8   158    20.0    0.00 
 123   12:15   0.98   84.2    15    7.3   172    14.4    0.00 
 123   12:20   0.98   86.0    14   10.1   163    19.4    0.00 
 123   12:25   1.00   86.1    14   11.1   196    18.9    0.00 
 123   12:30   0.93   85.0    14   13.3   195    23.9    0.00 
 123   12:35   0.98   84.6    14   10.2   197    17.7    0.00 
 123   12:40   0.94   85.2    14   11.1   194    18.9    0.00 
 123   12:45   0.85   85.1    15    7.7   185    14.4    0.00 
 123   12:50   0.94   85.2    15   12.1   167    19.4    0.00 
 123   12:55   0.96   85.4    15    9.6   174    17.2    0.00 
 123   13:00   0.98   86.0    15   11.0   191    18.3    0.00 
 123   13:05   0.93   85.7    15   11.2   191    17.2    0.00 
 123   13:10   0.95   84.5    16   10.8   183    19.4    0.00 
 123   13:15   0.96   86.2    15    9.4   203    17.7    0.00 
 123   13:20   0.96   87.6    14    9.0   164    19.4    0.00 
 123   13:25   0.97   85.5    15   10.1   195    18.9    0.00 
 123   13:30   0.89   85.2    16   13.3   207    26.1    0.00 
 123   13:35   0.88   83.8    16   14.1   213    21.6    0.00 
 123   13:40   0.91   84.0    16    9.8   211    16.6    0.00 
 123   13:45   0.81   84.7    16    9.9   188    19.4    0.00 
 123   13:50   0.86   85.6    15    9.1   202    17.2    0.00 
 123   13:55   0.94   85.3    15    8.1   200    17.2    0.00 
 123   14:00   0.86   87.6    14    5.3   179    13.8    0.00 
 123   14:05   0.87   86.3    15   10.8   205    22.8    0.00 
 123   14:10   0.79   85.8    15    8.9   187    15.5    0.00 
 123   14:15   0.92   86.2    15   11.1   196    19.4    0.00 
 123   14:20   0.79   85.9    15   11.4   191    23.3    0.00 
 123   14:25   0.89   85.8    15   10.7   204    19.4    0.00 
 123   14:30   0.88   85.5    15   11.3   204    20.5    0.00 
 123   14:35   0.88   85.3    15   11.9   191    20.5    0.00 
 123   14:40   0.89   85.3    15   11.8   196    21.1    0.00 
 123   14:45   0.86   85.4    15   11.6   195    18.9    0.00 
 123   14:50   0.81   85.9    15   11.2   203    17.7    0.00 
 123   14:55   0.79   85.8    14   12.5   208    22.8    0.00 
 123   15:00   0.69   85.3    15   12.1   211    21.1    0.00 
 123   15:05   0.79   85.1    15   10.6   204    17.2    0.00 
 123   15:10   0.80   86.2    15    6.9   152    16.6    0.00 
 123   15:15   0.77   88.2    14    9.6   185    17.7    0.00 
 123   15:20   0.75   85.7    15   14.8   196    24.4    0.00 
 123   15:25   0.73   84.3    16   11.4   201    23.3    0.00 
 123   15:30   0.70   84.1    16   16.0   211    22.2    0.00 
 123   15:35   0.68   83.6    16   12.8   216    23.9    0.00 
 123   15:40   0.68   85.1    16   10.6   189    18.3    0.00 
 123   15:45   0.61   85.8    16   12.5   204    23.9    0.00 
 123   15:50   0.64   83.6    17   15.3   210    25.0    0.00 
 123   15:55   0.63   84.4    16   12.0   194    18.3    0.00 
 123   16:00   0.61   84.0    17   12.8   213    20.0    0.00 
 123   16:05   0.60   84.2    17   12.5   200    20.0    0.00 
 123   16:10   0.58   83.1    17   15.5   211    26.7    0.00 
 123   16:15   0.57   83.1    17   13.2   205    23.3    0.00 
 123   16:20   0.55   82.6    17   13.7   202    21.6    0.00 
 123   16:25   0.54   83.2    17   13.5   212    20.5    0.00 
 123   16:30   0.52   83.3    17   15.7   183    23.9    0.00 
 123   16:35   0.51   82.9    17   13.0   200    24.4    0.00 
 123   16:40   0.49   82.3    17   12.4   198    22.8    0.00 
 123   16:45   0.48   82.8    17   12.8   195    18.9    0.00 
 123   16:50   0.46   82.1    18   12.1   203    21.6    0.00 
 123   16:55   0.43   82.1    18   11.4   199    18.9    0.00 
 123   17:00   0.42   82.7    18   12.4   174    18.9    0.00 
 123   17:05   0.38   82.9    18   11.3   194    19.4    0.00 
 123   17:10   0.28   81.6    19   12.7   194    19.4    0.00 
 123   17:15   0.24   81.1    19   14.6   204    22.2    0.00 
 123   17:20   0.35   81.0    19   11.3   198    23.3    0.00 
 123   17:25   0.36   81.7    19   14.0   184    21.6    0.00 
 123   17:30   0.34   80.2    20   14.5   200    22.8    0.00 
 123   17:35   0.31   80.3    20   12.9   198    21.6    0.00 
 123   17:40   0.29   80.7    20   12.0   195    19.4    0.00 
 123   17:45   0.27   80.4    21   12.1   189    20.5    0.00 
 123   17:50   0.23   80.6    20   12.5   180    19.4    0.00 
 123   17:55   0.23   80.2    21   13.4   201    21.1    0.00 
 123   18:00   0.16   79.2    22   13.1   205    23.9    0.00 
 123   18:05   0.11   78.8    22   12.8   202    21.1    0.00 
 123   18:10   0.11   78.2    23   12.2   200    22.2    0.00 
 123   18:15   0.09   78.3    23   12.2   185    18.3    0.00 
 123   18:20   0.07   78.0    24   11.1   184    20.5    0.00 
 123   18:25   0.07   77.1    25   13.2   198    22.8    0.00 
 123   18:30   0.06   76.8    25   10.7   188    17.7    0.00 
 123   18:35   0.05   76.6    24   12.5   206    21.1    0.00 
 123   18:40   0.04   76.6    24   10.0   192    18.9    0.00 
 123   18:45   0.03   76.4    23   11.4   198    16.6    0.00 
 123   18:50   0.03   75.9    23   12.7   190    25.6    0.00 
 123   18:55   0.02   75.7    23   11.5   189    18.9    0.00 
 123   19:00   0.01   75.2    24   12.7   183    20.5    0.00 
 123   19:05   0.01   74.9    24   12.3   184    22.8    0.00 
 123   19:10   0.01   74.6    26   11.2   187    18.9    0.00 
 123   19:15   0.00   74.4    26    9.9   194    17.7    0.00 
 123   19:20   0.00   74.2    27    9.7   206    17.2    0.00 
 123   19:25   0.00   73.7    28    9.8   198    17.7    0.00 
 123   19:30   0.00   73.3    28    9.7   204    18.9    0.00 
 123   19:35   0.00   72.9    28    8.6   209    14.4    0.00 
 123   19:40   0.00   72.6    29    8.9   192    13.8    0.00 
 123   19:45   0.00   72.4    29    8.3   201    14.4    0.00 
 123   19:50   0.00   72.2    30    8.4   205    16.6    0.00 
 123   19:55   0.00   72.1    30    8.6   201    13.8    0.00 
 123   20:00   0.00   72.0    30    7.2   203    13.3    0.00 
 123   20:05   0.00   71.9    30    8.4   185    12.7    0.00 
 123   20:10   0.00   71.6    31    8.5   182    13.3    0.00 
 123   20:15   0.00   71.6    31    8.2   189    13.3    0.00 
 123   20:20   0.00   71.6    31    8.0   200    12.7    0.00 
 123   20:25   0.00   71.5    32    6.8   188    11.0    0.00 
 123   20:30   0.00   71.4    32    7.1   197    13.8    0.00 
 123   20:35   0.00   71.2    32    5.9   194     9.9    0.00 
 123   20:40   0.00   71.1    33    9.3   188    13.3    0.00 
 123   20:45   0.00   71.1    33    7.3   182    13.3    0.00 
 123   20:50   0.00   71.1    33    7.7   194    12.1    0.00 
 123   20:55   0.00   71.1    33    7.4   193    12.7    0.00 
 123   21:00   0.00   71.1    33    7.7   204    13.8    0.00 
 123   21:05   0.00   71.1    34   10.3   192    18.3    0.00 
 123   21:10   0.00   71.2    34    9.2   196    16.0    0.00 
 123   21:15   0.00   71.2    34   10.6   195    22.8    0.00 
 123   21:20   0.00   71.2    35   11.0   195    20.0    0.00 
 123   21:25   0.00   71.1    36   10.4   196    17.7    0.00 
 123   21:30   0.00   70.9    36   10.3   196    17.2    0.00 
 123   21:35   0.00   70.8    37    9.5   206    16.6    0.00 
 123   21:40   0.00   70.7    38   10.5   198    17.7    0.00 
 123   21:45   0.00   70.6    38    9.2   194    16.6    0.00 
 123   21:50   0.00   70.5    39    9.8   191    15.5    0.00 
 123   21:55   0.00   70.4    39   11.0   194    20.5    0.00 
 123   22:00   0.00   70.4    39   12.5   193    21.1    0.00 
 123   22:05   0.00   70.3    39   10.7   202    22.2    0.00 
 123   22:10   0.00   70.1    39    7.6   186    12.1    0.00 
 123   22:15   0.00   70.0    39    6.3   174    10.5    0.00 
 123   22:20   0.00   70.0    39    6.3   189    11.6    0.00 
 123   22:25   0.00   70.0    39    6.8   178    12.1    0.00 
 123   22:30   0.00   69.9    39    7.2   156    16.6    0.00 
 123   22:35   0.00   69.7    39    7.7   145    13.8    0.00 
 123   22:40   0.00   69.6    39    9.7   144    16.0    0.00 
 123   22:45   0.00   69.6    39   12.8   161    20.0    0.00 
 123   22:50   0.00   69.6    39   11.6   176    17.2    0.00 
 123   22:55   0.00   69.6    39    9.9   172    13.8    0.00 
 123   23:00   0.00   69.5    39    8.2   180    13.8    0.00 
 123   23:05   0.00   69.6    39    8.1   193    13.3    0.00 
 123   23:10   0.00   69.6    39    9.0   192    14.4    0.00 
 123   23:15   0.00   69.5    39    7.0   194    11.0    0.00 
 123   23:20   0.00   69.4    39    7.8   188    12.1    0.00 
 123   23:25   0.00   69.3    39    7.9   197    13.3    0.00 
 123   23:30   0.00   69.3    39    7.4   200    11.6    0.00 
 123   23:35   0.00   69.2    39    7.2   191    12.7    0.00 
 123   23:40   0.00   69.0    39    5.7   206     9.3    0.00 
 123   23:45   0.00   69.0    39    4.3   208     7.1    0.00 
 123   23:50   0.00   68.6    40    4.2   216     8.2    0.00 
 123   23:55   0.00   68.4    40    5.5   217     9.9    0.00 
 124    0:00   0.00   68.3    40    6.3   211     9.3    0.00 
 124    0:05   0.00   68.3    40    5.5   196     9.3    0.00 
 124    0:10   0.00   68.1    40    7.1   188    12.7    0.00 
 124    0:15   0.00   68.1    41    7.6   191    12.7    0.00 
 124    0:20   0.00   67.8    41    5.7   182     9.9    0.00 
 124    0:25   0.00   67.8    41    5.7   189     9.9    0.00 
 124    0:30   0.00   67.7    41    5.4   178     7.7    0.00 
 124    0:35   0.00   67.4    42    6.3   177    11.6    0.00 
 124    0:40   0.00   67.4    42    5.8   184    11.0    0.00 
 124    0:45   0.00   67.3    43    6.1   191    11.0    0.00 
 124    0:50   0.00   67.1    43    7.3   176    12.1    0.00 
 124    0:55   0.00   67.0    43    6.8   177     9.3    0.00 
 124    1:00   0.00   67.0    43    6.6   179     9.9    0.00 
 124    1:05   0.00   66.9    44    6.2   178    11.0    0.00 
 124    1:10   0.00   66.8    44    4.1   186     7.1    0.00 
 124    1:15   0.00   66.6    44    4.3   159     7.7    0.00 
 124    1:20   0.00   66.5    44    6.4   165    10.5    0.00 
 124    1:25   0.00   66.4    44    6.5   150    13.3    0.00 
 124    1:30   0.00   66.3    44    5.4   159     8.8    0.00 
 124    1:35   0.00   66.2    44    5.0   143     9.9    0.00 
 124    1:40   0.00   66.1    45    3.3   178     7.1    0.00 
 124    1:45   0.00   66.1    44    3.7   193     6.5    0.00 
 124    1:50   0.00   66.0    44    4.2   212     7.1    0.00 
 124    1:55   0.00   66.1    45    6.5   209     9.9    0.00 
 124    2:00   0.00   65.9    45    7.2   210    11.6    0.00 
 124    2:05   0.00   65.7    46    6.3   212     9.3    0.00 
 124    2:10   0.00   65.6    46    7.4   213    12.1    0.00 
 124    2:15   0.00   65.4    47    6.7   212    10.5    0.00 
 124    2:20   0.00   65.3    47    6.6   218    12.1    0.00 
 124    2:25   0.00   65.2    47    4.7   211     8.2    0.00 
 124    2:30   0.00   64.9    47    5.5   207     8.8    0.00 
 124    2:35   0.00   64.8    47    5.4   210     8.2    0.00 
 124    2:40   0.00   64.7    48    4.5   217     8.8    0.00 
 124    2:45   0.00   64.6    48    3.8   214     6.0    0.00 
 124    2:50   0.00   64.5    48    4.3   205     7.1    0.00 
 124    2:55   0.00   64.5    48    4.0   220     7.7    0.00 
 124    3:00   0.00   64.4    47    3.9   220     7.1    0.00 
 124    3:05   0.00   64.3    47    3.4   222     6.5    0.00 
 124    3:10   0.00   64.3    48    4.0   221     7.1    0.00 
 124    3:15   0.00   64.1    48    4.4   222     7.1    0.00 
 124    3:20   0.00   64.0    49    5.1   221     9.3    0.00 
 124    3:25   0.00   63.9    49    6.0   226     9.3    0.00 
 124    3:30   0.00   63.8    49    5.2   214     7.7    0.00 
 124    3:35   0.00   63.6    50    6.1   221    11.0    0.00 
 124    3:40   0.00   63.5    50    5.3   214     8.8    0.00 
 124    3:45   0.00   63.3    50    5.8   215     9.3    0.00 
 124    3:50   0.00   63.2    51    4.9   216     8.2    0.00 
 124    3:55   0.00   63.1    51    5.1   208     7.7    0.00 
 124    4:00   0.00   63.0    51    5.9   219     9.9    0.00 
 124    4:05   0.00   62.9    51    7.7   216    11.6    0.00 
 124    4:10   0.00   62.7    51    6.0   212     9.9    0.00 
 124    4:15   0.00   62.5    52    5.6   214     8.8    0.00 
 124    4:20   0.00   62.4    52    5.2   214     8.2    0.00 
 124    4:25   0.00   62.3    52    3.3   209     6.5    0.00 
 124    4:30   0.00   62.1    53    3.5   205     5.4    0.00 
 124    4:35   0.00   62.0    53    4.1   221     7.1    0.00 
 124    4:40   0.00   61.9    53    3.7   226     6.5    0.00 
 124    4:45   0.00   61.8    54    1.8   228     6.5    0.00 
 124    4:50   0.00   61.6    54    2.1   212     4.9    0.00 
 124    4:55   0.00   61.6    54    3.1   220     5.4    0.00 
 124    5:00   0.00   61.7    54    5.3   208     8.8    0.00 
 124    5:05   0.00   61.6    54    5.9   208    10.5    0.00 
 124    5:10   0.00   61.5    54    5.5   213     9.3    0.00 
 124    5:15   0.00   61.3    55    6.9   214    11.0    0.00 
 124    5:20   0.00   61.2    55    5.8   212     9.3    0.00 
 124    5:25   0.00   61.5    54    6.5   203    10.5    0.00 
 124    5:30   0.00   61.3    55    5.9   200     8.8    0.00 
 124    5:35   0.00   61.1    56    4.3   195     8.2    0.00 
 124    5:40   0.00   61.0    56    3.6   202     6.5    0.00 
 124    5:45   0.00   60.9    56    5.1   203     8.2    0.00 
 124    5:50   0.00   60.9    56    6.4   208     9.9    0.00 
 124    5:55   0.01   60.9    56    4.6   215     9.3    0.00 
 124    6:00   0.01   60.7    57    4.8   224     9.3    0.00 
 124    6:05   0.02   60.5    57    3.9   225     7.1    0.00 
 124    6:10   0.02   60.5    58    4.6   229     7.7    0.00 
 124    6:15   0.03   60.6    58    5.7   226     8.2    0.00 
 124    6:20   0.03   60.6    58    6.7   214    12.7    0.00 
 124    6:25   0.04   60.6    58    6.4   207     9.9    0.00 
 124    6:30   0.05   60.6    58    5.5   203    10.5    0.00 

Return to Weather Top graphs page.


Western Regional Climate Center,wrcc@dri.edu